Time;durP1;ratioP1;P1;durP2;ratioP2;P2;SDS_P1;SDS_P2;PMS_P1;PMS_P2;Temp;Humidity;BMP_temperature;BMP_pressure;BME280_temperature;BME280_humidity;BME280_pressure;Samples;Min_cycle;Max_cycle;Signal;HPM_P1;HPM_P2
2022/10/16 00:01:30;;;;;;;13.27;5.95;;;358.90;2329.60;;;;;;5016635;28;20105;-74
2022/10/16 00:03:58;;;;;;;14.57;6.70;;;358.90;2329.60;;;;;;5017342;28;20060;-76
2022/10/16 00:06:25;;;;;;;9.88;5.68;;;358.90;2329.60;;;;;;5015681;28;20037;-75
2022/10/16 00:08:52;;;;;;;12.68;6.57;;;358.90;2329.60;;;;;;5016772;28;20068;-73
2022/10/16 00:11:20;;;;;;;11.57;6.55;;;358.90;2329.60;;;;;;5016986;28;20026;-73
2022/10/16 00:13:47;;;;;;;11.05;5.63;;;358.90;2329.60;;;;;;5019519;28;20028;-79
2022/10/16 00:16:14;;;;;;;16.02;6.38;;;359.00;2329.60;;;;;;5016737;28;20030;-74
2022/10/16 00:18:41;;;;;;;11.90;6.15;;;359.00;2329.60;;;;;;5024868;28;20101;-74
2022/10/16 00:21:13;;;;;;;10.10;5.72;;;359.00;2329.60;;;;;;5022235;28;20055;-75
2022/10/16 00:23:39;;;;;;;11.73;5.35;;;359.00;2329.60;;;;;;5021944;28;20018;-73
2022/10/16 00:26:08;;;;;;;13.05;5.18;;;359.00;2329.60;;;;;;5021936;28;20014;-74
2022/10/16 00:28:34;;;;;;;8.88;5.63;;;359.00;2329.60;;;;;;5016239;28;20045;-73
2022/10/16 00:31:07;;;;;;;8.90;5.25;;;359.10;2329.60;;;;;;5016136;28;20026;-74
2022/10/16 00:33:33;;;;;;;12.48;6.43;;;359.10;2329.60;;;;;;5013730;28;20026;-79
2022/10/16 00:36:00;;;;;;;11.88;5.95;;;359.10;2329.60;;;;;;5016348;28;20032;-74
2022/10/16 00:38:26;;;;;;;11.20;6.20;;;359.20;2329.60;;;;;;5018750;28;20025;-77
2022/10/16 00:40:52;;;;;;;10.80;5.30;;;359.20;2329.60;;;;;;5014597;28;20093;-74
2022/10/16 00:43:50;;;;;;;10.93;5.97;;;359.20;2329.60;;;;;;5016233;28;20100;-73
2022/10/16 00:46:27;;;;;;;12.15;5.47;;;359.20;2329.60;;;;;;5021568;28;20144;-78
2022/10/16 00:49:05;;;;;;;11.95;6.40;;;359.30;2329.60;;;;;;5021279;28;20105;-73
2022/10/16 00:51:36;;;;;;;12.70;5.32;;;359.30;2329.60;;;;;;5018490;28;20096;-73
2022/10/16 00:54:06;;;;;;;11.13;6.03;;;359.30;2329.60;;;;;;5018940;28;20017;-78
2022/10/16 00:56:33;;;;;;;8.77;5.70;;;359.30;2329.60;;;;;;5023459;28;20033;-72
2022/10/16 00:59:01;;;;;;;9.38;5.72;;;359.30;2329.60;;;;;;5013345;28;20018;-78
2022/10/16 01:01:27;;;;;;;11.45;6.32;;;359.20;2329.60;;;;;;5018193;28;20029;-74
2022/10/16 01:03:53;;;;;;;12.43;6.15;;;359.20;2329.60;;;;;;5015582;28;20081;-73
2022/10/16 01:06:40;;;;;;;12.50;6.10;;;359.20;2329.60;;;;;;5018224;28;20134;-75
2022/10/16 01:09:31;;;;;;;13.63;5.35;;;359.20;2329.60;;;;;;5015580;28;20029;-74
2022/10/16 01:12:17;;;;;;;11.55;5.47;;;359.20;2329.60;;;;;;5015437;28;20045;-74
2022/10/16 01:14:59;;;;;;;8.15;5.10;;;359.20;2329.60;;;;;;5019342;28;20106;-75
2022/10/16 01:17:46;;;;;;;13.20;6.45;;;359.10;2329.60;;;;;;5026292;28;20024;-78
2022/10/16 01:20:37;;;;;;;12.23;6.03;;;359.10;2329.60;;;;;;5018291;28;20088;-74
2022/10/16 01:23:24;;;;;;;9.73;5.82;;;359.00;2329.60;;;;;;5015363;28;20022;-79
2022/10/16 01:26:09;;;;;;;10.98;6.05;;;359.00;2329.60;;;;;;5015451;28;20022;-76
2022/10/16 01:28:42;;;;;;;14.75;6.60;;;359.00;2329.60;;;;;;5026450;28;20032;-74
2022/10/16 01:31:11;;;;;;;15.05;7.25;;;359.00;2329.60;;;;;;5020465;28;20072;-74
2022/10/16 01:33:47;;;;;;;9.73;5.55;;;359.00;2329.60;;;;;;5018012;28;20075;-75
2022/10/16 01:36:19;;;;;;;11.98;6.15;;;359.00;2329.60;;;;;;5017872;28;20050;-75
2022/10/16 01:38:49;;;;;;;13.98;6.85;;;358.80;2329.60;;;;;;5015061;28;20026;-73
2022/10/16 01:41:24;;;;;;;11.15;6.50;;;358.80;2329.60;;;;;;5014476;28;20032;-79
2022/10/16 01:43:57;;;;;;;15.55;6.05;;;358.80;2329.60;;;;;;5019231;28;20041;-74
2022/10/16 01:46:24;;;;;;;10.82;6.20;;;358.70;2329.60;;;;;;5002681;28;20399;-73
2022/10/16 01:48:52;;;;;;;10.95;6.75;;;358.70;2329.60;;;;;;5020391;28;20502;-74
2022/10/16 01:51:19;;;;;;;11.20;6.25;;;358.60;2329.60;;;;;;5014436;28;20049;-73
2022/10/16 01:53:51;;;;;;;10.65;6.47;;;358.60;2329.60;;;;;;5018206;28;20024;-73
2022/10/16 01:56:17;;;;;;;13.73;6.78;;;358.60;2329.60;;;;;;5016076;28;20032;-74
2022/10/16 01:58:52;;;;;;;9.85;6.45;;;358.50;2329.60;;;;;;5012604;28;20452;-74
2022/10/16 02:01:21;;;;;;;11.55;6.63;;;358.50;2329.60;;;;;;5012841;28;20048;-74
2022/10/16 02:03:52;;;;;;;12.93;7.22;;;358.50;2329.60;;;;;;5018439;28;20046;-74
2022/10/16 02:06:17;;;;;;;17.05;7.13;;;358.50;2329.60;;;;;;5000205;28;20507;-74
2022/10/16 02:08:43;;;;;;;13.70;7.05;;;358.40;2329.60;;;;;;5017584;28;20033;-74
2022/10/16 02:11:10;;;;;;;10.68;7.00;;;358.50;2329.60;;;;;;5017363;28;20025;-73
2022/10/16 02:13:47;;;;;;;13.52;7.53;;;358.40;2329.60;;;;;;5022035;28;20045;-74
2022/10/16 02:16:14;;;;;;;15.00;7.90;;;358.40;2329.60;;;;;;5020234;28;20090;-74
2022/10/16 02:18:42;;;;;;;12.55;6.47;;;333.70;2329.60;;;;;;5017137;28;20479;-74
2022/10/16 02:21:34;;;;;;;14.48;7.53;;;358.40;2329.60;;;;;;5011828;28;20072;-74
2022/10/16 02:24:28;;;;;;;12.25;7.68;;;358.40;2329.60;;;;;;5019795;28;20029;-74
2022/10/16 02:27:15;;;;;;;13.20;6.47;;;333.70;2329.60;;;;;;5011704;28;20560;-74
2022/10/16 02:29:51;;;;;;;17.92;7.68;;;333.70;2329.60;;;;;;5019699;28;20069;-74
2022/10/16 02:32:21;;;;;;;12.20;8.10;;;333.60;2329.60;;;;;;5018828;28;20098;-74
2022/10/16 02:34:48;;;;;;;14.10;7.43;;;333.50;2329.60;;;;;;5017350;28;20445;-74
2022/10/16 02:37:16;;;;;;;9.25;6.93;;;333.50;2329.60;;;;;;5014278;28;20029;-74
2022/10/16 02:39:41;;;;;;;11.82;6.97;;;333.50;2329.60;;;;;;5017093;28;20026;-74
2022/10/16 02:42:14;;;;;;;15.95;8.05;;;333.40;2329.60;;;;;;5022277;28;20097;-73
2022/10/16 02:44:40;;;;;;;10.32;7.03;;;333.40;2329.60;;;;;;5011677;28;20050;-82
2022/10/16 02:47:06;;;;;;;12.65;6.88;;;333.40;2329.60;;;;;;5022026;28;20072;-74
2022/10/16 02:49:31;;;;;;;13.65;8.27;;;333.30;2329.60;;;;;;5016911;28;20021;-74
2022/10/16 02:51:57;;;;;;;17.80;6.63;;;333.40;2329.60;;;;;;5017096;28;20096;-79
2022/10/16 02:54:23;;;;;;;11.05;7.07;;;333.30;2329.60;;;;;;5016809;28;20055;-77
2022/10/16 02:56:49;;;;;;;19.10;6.78;;;333.30;2329.60;;;;;;5013113;28;20072;-74
2022/10/16 02:59:15;;;;;;;13.55;6.95;;;333.30;2329.60;;;;;;5011353;28;20639;-74
2022/10/16 03:01:41;;;;;;;18.70;7.90;;;333.30;2329.60;;;;;;5013078;28;20104;-74
2022/10/16 03:04:07;;;;;;;22.10;7.15;;;333.30;2329.60;;;;;;5020747;28;20042;-74
2022/10/16 03:06:33;;;;;;;11.95;6.63;;;333.30;2329.60;;;;;;5020526;28;20049;-75
2022/10/16 03:08:58;;;;;;;15.00;6.78;;;333.30;2329.60;;;;;;5022467;28;20018;-74
2022/10/16 03:11:24;;;;;;;13.60;7.00;;;333.30;2329.60;;;;;;5021340;28;20026;-74
2022/10/16 03:13:50;;;;;;;17.05;7.53;;;333.40;2329.60;;;;;;5020592;28;20108;-74
2022/10/16 03:16:16;;;;;;;12.82;7.22;;;333.30;2329.60;;;;;;5023319;28;20029;-74
2022/10/16 03:18:41;;;;;;;13.30;7.88;;;333.30;2329.60;;;;;;5019261;28;20113;-73
2022/10/16 03:21:07;;;;;;;11.75;7.05;;;333.30;2329.60;;;;;;5023160;28;20022;-74
2022/10/16 03:23:33;;;;;;;15.25;7.28;;;333.40;2329.60;;;;;;5023147;28;20014;-74
2022/10/16 03:25:58;;;;;;;10.30;6.53;;;333.50;2329.60;;;;;;5017494;28;20495;-79
2022/10/16 03:28:24;;;;;;;13.00;7.10;;;333.50;2329.60;;;;;;5025909;28;20022;-74
2022/10/16 03:30:50;;;;;;;15.13;8.77;;;333.50;2329.60;;;;;;5014652;28;20018;-78
2022/10/16 03:33:16;;;;;;;17.27;7.72;;;333.50;2329.60;;;;;;5022989;28;20025;-74
2022/10/16 03:35:41;;;;;;;14.50;7.50;;;333.50;2329.60;;;;;;5014649;28;20040;-74
2022/10/16 03:38:07;;;;;;;10.88;7.00;;;333.50;2329.60;;;;;;5025688;28;20518;-78
2022/10/16 03:40:33;;;;;;;22.77;8.60;;;333.50;2329.60;;;;;;5019996;28;20093;-74
2022/10/16 03:42:59;;;;;;;11.70;7.45;;;333.50;2329.60;;;;;;5017503;28;20022;-74
2022/10/16 03:45:26;;;;;;;11.85;7.82;;;333.50;2329.60;;;;;;5022552;28;20037;-74
2022/10/16 03:47:51;;;;;;;12.07;7.63;;;333.50;2329.60;;;;;;5019602;28;20598;-74
2022/10/16 03:50:17;;;;;;;13.35;7.72;;;333.30;2329.60;;;;;;5017236;28;20022;-73
2022/10/16 03:52:43;;;;;;;11.32;6.68;;;333.30;2329.60;;;;;;5016939;28;20026;-78
2022/10/16 03:55:09;;;;;;;10.40;7.13;;;333.20;2329.60;;;;;;5020055;28;20037;-73
2022/10/16 03:57:34;;;;;;;13.73;7.43;;;333.20;2329.60;;;;;;5019706;28;20507;-73
2022/10/16 04:00:00;;;;;;;15.77;8.05;;;333.10;2329.60;;;;;;5017097;28;20052;-73
2022/10/16 04:02:26;;;;;;;12.35;7.95;;;333.00;2329.60;;;;;;5013966;28;20053;-74
2022/10/16 04:04:52;;;;;;;10.25;7.90;;;332.90;2329.60;;;;;;5016804;28;20499;-73
2022/10/16 04:07:18;;;;;;;13.90;7.95;;;332.90;2329.60;;;;;;5019248;28;20037;-73
2022/10/16 04:09:43;;;;;;;14.70;7.75;;;332.90;2329.60;;;;;;5018399;28;20098;-79
2022/10/16 04:12:09;;;;;;;14.10;8.48;;;332.90;2329.60;;;;;;5022028;28;20026;-74
2022/10/16 04:14:35;;;;;;;12.27;8.07;;;332.90;2329.60;;;;;;5018758;28;20044;-77
2022/10/16 04:17:01;;;;;;;14.23;8.20;;;332.90;2329.60;;;;;;5019540;28;20108;-74
2022/10/16 04:19:26;;;;;;;18.23;8.30;;;332.90;2329.60;;;;;;5016316;28;20024;-74
2022/10/16 04:21:52;;;;;;;15.82;8.27;;;332.90;2329.60;;;;;;5016699;28;20080;-75
2022/10/16 04:24:18;;;;;;;14.80;8.07;;;333.00;2329.60;;;;;;5021926;28;20028;-73
2022/10/16 04:26:43;;;;;;;12.35;7.95;;;333.00;2329.60;;;;;;5018205;28;20038;-74
2022/10/16 04:29:09;;;;;;;14.68;9.00;;;333.10;2329.60;;;;;;5004768;28;20034;-79
2022/10/16 04:31:35;;;;;;;15.40;9.02;;;333.10;2329.60;;;;;;5019437;28;20132;-74
2022/10/16 04:34:01;;;;;;;15.18;8.85;;;333.20;2329.60;;;;;;5024993;28;20032;-74
2022/10/16 04:36:26;;;;;;;11.05;7.90;;;333.20;2329.60;;;;;;5007672;28;20356;-74
2022/10/16 04:38:52;;;;;;;12.35;8.55;;;333.30;2329.60;;;;;;5016874;28;20845;-73
2022/10/16 04:41:18;;;;;;;15.48;8.88;;;333.30;2329.60;;;;;;5018817;28;20090;-74
2022/10/16 04:43:43;;;;;;;12.02;8.07;;;333.30;2329.60;;;;;;5017826;28;20025;-73
2022/10/16 04:46:10;;;;;;;12.95;7.40;;;333.30;2329.60;;;;;;5022112;28;20476;-74
2022/10/16 04:48:35;;;;;;;14.05;8.10;;;333.30;2329.60;;;;;;5016223;28;20063;-75
2022/10/16 04:51:01;;;;;;;11.93;8.05;;;333.30;2329.60;;;;;;5015789;28;20017;-74
2022/10/16 04:53:27;;;;;;;21.25;8.43;;;333.30;2329.60;;;;;;5018798;28;20025;-74
2022/10/16 04:55:53;;;;;;;13.07;7.50;;;333.30;2329.60;;;;;;5018743;28;20022;-73
2022/10/16 04:58:18;;;;;;;11.57;7.78;;;333.30;2329.60;;;;;;5017624;28;20022;-73
2022/10/16 05:00:46;;;;;;;16.00;8.43;;;333.30;2329.60;;;;;;5022446;28;20017;-73
2022/10/16 05:03:13;;;;;;;15.00;7.90;;;333.30;2329.60;;;;;;5004620;28;20491;-74
2022/10/16 05:05:44;;;;;;;13.93;8.38;;;333.20;2329.60;;;;;;5015424;28;20044;-73
2022/10/16 05:08:12;;;;;;;13.18;8.05;;;333.20;2329.60;;;;;;5017623;28;20105;-74
2022/10/16 05:10:38;;;;;;;16.80;8.32;;;333.20;2329.60;;;;;;5001528;28;20101;-73
2022/10/16 05:13:04;;;;;;;16.02;8.80;;;333.20;2329.60;;;;;;5008239;28;20195;-73
2022/10/16 05:15:29;;;;;;;15.82;8.80;;;333.20;2329.60;;;;;;5015755;28;20040;-74
2022/10/16 05:17:55;;;;;;;12.23;7.93;;;333.20;2329.60;;;;;;5015436;28;20030;-73
2022/10/16 05:20:22;;;;;;;27.40;9.73;;;333.20;2329.60;;;;;;5016415;28;20467;-80
2022/10/16 05:22:48;;;;;;;20.33;8.60;;;333.20;2329.60;;;;;;5019800;28;20460;-74
2022/10/16 05:25:14;;;;;;;17.08;8.55;;;333.20;2329.60;;;;;;5011926;28;20028;-79
2022/10/16 05:27:39;;;;;;;11.77;7.70;;;333.10;2329.60;;;;;;5020556;28;20030;-73
2022/10/16 05:30:06;;;;;;;12.73;6.93;;;333.10;2329.60;;;;;;5021215;28;20088;-74
2022/10/16 05:32:31;;;;;;;15.77;8.45;;;333.10;2329.60;;;;;;5020732;28;20525;-74
2022/10/16 05:34:59;;;;;;;12.10;7.50;;;333.00;2329.60;;;;;;5015084;28;20022;-73
2022/10/16 05:37:26;;;;;;;13.27;8.00;;;333.00;2329.60;;;;;;5018236;28;20025;-73
2022/10/16 05:39:52;;;;;;;13.25;7.50;;;333.00;2329.60;;;;;;5022863;28;20018;-73
2022/10/16 05:42:18;;;;;;;14.82;7.40;;;333.00;2329.60;;;;;;5020418;28;20106;-77
2022/10/16 05:44:44;;;;;;;17.95;8.35;;;333.10;2329.60;;;;;;5020551;28;20463;-76
2022/10/16 05:47:12;;;;;;;16.35;7.95;;;333.10;2329.60;;;;;;5012364;28;20041;-72
2022/10/16 05:49:38;;;;;;;19.63;8.10;;;333.20;2329.60;;;;;;5014507;28;20502;-75
2022/10/16 05:52:04;;;;;;;12.80;7.50;;;333.30;2329.60;;;;;;4998543;28;20034;-73
2022/10/16 05:54:29;;;;;;;12.85;7.25;;;333.30;2329.60;;;;;;5023258;28;20032;-72
2022/10/16 05:56:55;;;;;;;16.13;8.02;;;333.40;2329.60;;;;;;5031995;28;20052;-79
2022/10/16 05:59:21;;;;;;;19.35;7.47;;;333.40;2329.60;;;;;;5052654;28;20033;-72
2022/10/16 06:01:46;;;;;;;15.88;7.70;;;333.50;2329.60;;;;;;5018064;28;20048;-73
2022/10/16 06:04:12;;;;;;;14.10;6.97;;;333.50;2329.60;;;;;;5046169;28;20053;-74
2022/10/16 06:06:38;;;;;;;16.75;8.18;;;333.60;2329.60;;;;;;5032189;28;20037;-73
2022/10/16 06:09:04;;;;;;;11.95;7.80;;;333.70;2329.60;;;;;;5046422;28;20029;-71
2022/10/16 06:11:31;;;;;;;14.25;7.22;;;333.70;2329.60;;;;;;5037426;28;20027;-72
2022/10/16 06:14:01;;;;;;;13.80;7.20;;;358.40;2329.60;;;;;;5052530;28;20391;-77
2022/10/16 06:16:28;;;;;;;15.40;7.18;;;358.50;2329.60;;;;;;5014102;28;20028;-76
2022/10/16 06:18:59;;;;;;;15.57;7.40;;;358.50;2329.60;;;;;;5024332;28;20025;-72
2022/10/16 06:21:26;;;;;;;15.77;7.85;;;358.60;2329.60;;;;;;5039660;28;20547;-74
2022/10/16 06:23:52;;;;;;;14.73;7.53;;;358.70;2329.60;;;;;;5016992;28;20537;-72
2022/10/16 06:26:20;;;;;;;15.45;8.05;;;358.60;2329.60;;;;;;5014956;28;20487;-73
2022/10/16 06:28:47;;;;;;;13.15;7.50;;;358.60;2329.60;;;;;;5030399;28;20044;-73
2022/10/16 06:31:13;;;;;;;11.40;7.13;;;358.70;2329.60;;;;;;5042364;28;20028;-74
2022/10/16 06:33:39;;;;;;;13.55;7.72;;;358.80;2329.60;;;;;;5051696;28;20059;-73
2022/10/16 06:36:14;;;;;;;12.23;7.40;;;358.80;2329.60;;;;;;5051813;28;20044;-73
2022/10/16 06:38:41;;;;;;;14.35;6.80;;;358.90;2329.60;;;;;;5037904;28;20068;-74
2022/10/16 06:41:07;;;;;;;9.95;6.97;;;358.90;2329.60;;;;;;5043592;28;20017;-81
2022/10/16 06:43:36;;;;;;;14.45;7.32;;;359.00;2329.60;;;;;;5033062;28;20529;-73
2022/10/16 06:46:04;;;;;;;12.85;6.95;;;359.00;2329.60;;;;;;5051748;28;20545;-73
2022/10/16 06:48:30;;;;;;;9.45;6.68;;;359.10;2329.60;;;;;;5051923;28;20013;-79
2022/10/16 06:51:08;;;;;;;11.98;6.68;;;359.20;2329.60;;;;;;5043098;28;20036;-73
2022/10/16 06:53:35;;;;;;;11.80;6.82;;;359.20;2329.60;;;;;;5026068;28;20127;-74
2022/10/16 06:56:19;;;;;;;10.15;6.53;;;384.00;2329.60;;;;;;5025892;28;20026;-75
2022/10/16 06:58:46;;;;;;;10.75;6.50;;;384.20;2329.60;;;;;;5028743;28;20034;-77
2022/10/16 07:01:12;;;;;;;14.45;7.38;;;384.30;2329.60;;;;;;5007300;28;20025;-74
2022/10/16 07:03:39;;;;;;;13.18;6.28;;;384.40;2329.60;;;;;;5019545;28;20081;-76
2022/10/16 07:06:07;;;;;;;16.95;6.80;;;384.50;2329.60;;;;;;5012063;28;20104;-74
2022/10/16 07:08:35;;;;;;;18.02;6.50;;;384.70;2329.60;;;;;;5021957;28;20096;-74
2022/10/16 07:11:03;;;;;;;10.38;6.05;;;384.90;2329.60;;;;;;5018235;28;20120;-75
2022/10/16 07:13:28;;;;;;;13.50;6.60;;;384.90;2329.60;;;;;;5006889;28;20018;-76
2022/10/16 07:15:54;;;;;;;9.98;6.38;;;409.60;2355.20;;;;;;5007341;28;20462;-75
2022/10/16 07:18:20;;;;;;;11.20;5.55;;;409.70;2355.20;;;;;;5019501;28;20025;-74
2022/10/16 07:20:46;;;;;;;14.73;6.00;;;409.80;2355.20;;;;;;5017957;28;20025;-74
2022/10/16 07:23:11;;;;;;;8.88;5.28;;;410.00;2355.20;;;;;;5020949;28;20083;-76
2022/10/16 07:25:37;;;;;;;9.98;6.40;;;410.00;2355.20;;;;;;5030944;28;20044;-86
2022/10/16 07:28:03;;;;;;;12.25;6.00;;;410.00;2355.20;;;;;;5051676;28;20072;-84
2022/10/16 07:30:29;;;;;;;11.02;5.82;;;410.20;2355.20;;;;;;5051991;28;20497;-74
2022/10/16 07:32:54;;;;;;;11.55;5.32;;;410.30;2355.20;;;;;;5052005;28;20025;-78
2022/10/16 07:35:20;;;;;;;8.45;5.65;;;410.40;2355.20;;;;;;5021007;28;20141;-77
2022/10/16 07:37:46;;;;;;;11.88;5.60;;;410.40;2355.20;;;;;;5045502;28;20517;-85
2022/10/16 07:40:12;;;;;;;7.80;5.35;;;410.40;2355.20;;;;;;5031681;28;20053;-84
2022/10/16 07:42:38;;;;;;;15.20;5.63;;;410.40;2355.20;;;;;;5020962;28;20033;-75
2022/10/16 07:45:05;;;;;;;11.68;5.55;;;410.50;2355.20;;;;;;5051980;28;20036;-77
2022/10/16 07:47:30;;;;;;;12.27;5.10;;;410.50;2355.20;;;;;;5019460;28;20061;-74
2022/10/16 07:49:56;;;;;;;10.95;5.38;;;410.50;2355.20;;;;;;5043955;28;20099;-80
2022/10/16 07:52:22;;;;;;;8.32;4.57;;;410.50;2355.20;;;;;;5038270;28;20120;-75
2022/10/16 07:54:47;;;;;;;9.95;4.60;;;435.20;2355.20;;;;;;5055070;28;20028;-80
2022/10/16 07:57:19;;;;;;;11.85;5.22;;;435.20;2355.20;;;;;;5036691;28;20131;-76
2022/10/16 07:59:45;;;;;;;25.65;6.40;;;435.20;2355.20;;;;;;5037266;28;20021;-74
2022/10/16 08:02:11;;;;;;;10.55;5.43;;;435.30;2355.20;;;;;;5054770;28;20029;-74
2022/10/16 08:04:37;;;;;;;15.13;5.03;;;435.30;2355.20;;;;;;5023607;28;20381;-75
2022/10/16 08:07:03;;;;;;;8.88;5.00;;;435.40;2355.20;;;;;;5025720;28;20029;-88
2022/10/16 08:09:28;;;;;;;22.52;6.38;;;435.50;2355.20;;;;;;5020092;28;20022;-76
2022/10/16 08:11:54;;;;;;;12.05;5.78;;;435.50;2355.20;;;;;;5018748;28;20034;-82
2022/10/16 08:14:20;;;;;;;15.07;4.60;;;435.50;2355.20;;;;;;5030305;28;20056;-76
2022/10/16 08:16:45;;;;;;;9.65;4.72;;;435.50;2355.20;;;;;;5028433;28;20053;-76
2022/10/16 08:19:13;;;;;;;8.60;4.63;;;435.60;2355.20;;;;;;5034489;28;20085;-76
2022/10/16 08:21:39;;;;;;;14.50;5.50;;;435.70;2355.20;;;;;;5049920;28;20024;-74
2022/10/16 08:24:05;;;;;;;8.88;4.22;;;435.80;2355.20;;;;;;5046915;28;20490;-75
2022/10/16 08:26:30;;;;;;;8.02;4.90;;;435.80;2355.20;;;;;;5034625;28;20049;-74
2022/10/16 08:28:56;;;;;;;10.25;4.40;;;435.80;2355.20;;;;;;5048449;28;20025;-72
2022/10/16 08:31:22;;;;;;;20.92;6.22;;;435.90;2355.20;;;;;;5045777;28;20025;-74
2022/10/16 08:33:48;;;;;;;10.18;4.50;;;436.00;2355.20;;;;;;5050592;28;20502;-74
2022/10/16 08:36:16;;;;;;;11.45;5.07;;;436.00;2355.20;;;;;;5043527;28;20029;-76
2022/10/16 08:38:41;;;;;;;11.75;4.78;;;436.10;2355.20;;;;;;5053931;28;20028;-75
2022/10/16 08:41:13;;;;;;;13.60;4.85;;;460.80;2380.80;;;;;;5021625;28;20410;-75
2022/10/16 08:43:47;;;;;;;9.02;4.40;;;460.80;2380.80;;;;;;5019255;28;20045;-73
2022/10/16 08:46:41;;;;;;;9.38;4.35;;;460.90;2380.80;;;;;;5021755;28;20045;-75
2022/10/16 08:49:12;;;;;;;9.43;5.15;;;460.90;2380.80;;;;;;5049580;28;20017;-74
2022/10/16 08:51:38;;;;;;;8.90;4.60;;;461.00;2380.80;;;;;;5053914;28;20426;-74
2022/10/16 08:54:22;;;;;;;8.40;4.25;;;461.00;2380.80;;;;;;5053685;28;20029;-74
2022/10/16 08:56:47;;;;;;;10.70;5.30;;;461.10;2380.80;;;;;;5053782;28;20017;-75
2022/10/16 08:59:16;;;;;;;9.25;4.43;;;461.20;2380.80;;;;;;5050392;28;20523;-80
2022/10/16 09:01:45;;;;;;;7.35;4.65;;;461.30;2252.80;;;;;;5042992;28;20017;-74
2022/10/16 09:04:32;;;;;;;13.45;5.25;;;461.40;2278.40;;;;;;5053521;28;20068;-74
2022/10/16 09:07:08;;;;;;;8.55;4.70;;;461.50;2252.80;;;;;;5031069;28;20084;-73
2022/10/16 09:09:36;;;;;;;9.48;4.38;;;461.70;2227.20;;;;;;5021811;28;20014;-74
2022/10/16 09:12:27;;;;;;;12.38;4.30;;;486.40;2150.40;;;;;;5020435;28;20105;-74
2022/10/16 09:15:05;;;;;;;15.98;5.45;;;486.50;2150.40;;;;;;5021760;28;20026;-76
2022/10/16 09:17:49;;;;;;;14.73;4.22;;;486.60;2176.00;;;;;;5016210;28;20033;-75
2022/10/16 09:20:26;;;;;;;9.55;4.85;;;486.70;2176.00;;;;;;5030134;28;20083;-77
2022/10/16 09:23:04;;;;;;;6.80;4.78;;;486.90;2150.40;;;;;;5014173;28;20534;-74
2022/10/16 09:25:31;;;;;;;9.82;4.57;;;487.00;2022.40;;;;;;5015438;28;20101;-74
2022/10/16 09:27:56;;;;;;;13.13;7.90;;;487.00;1996.80;;;;;;5019096;28;20041;-74
2022/10/16 09:30:26;;;;;;;8.27;4.20;;;487.20;1996.80;;;;;;5022802;28;20025;-79
2022/10/16 09:32:53;;;;;;;8.57;4.07;;;487.10;1945.60;;;;;;5022577;28;20554;-75
2022/10/16 09:35:31;;;;;;;8.30;4.25;;;487.30;1996.80;;;;;;5023744;28;20471;-72
2022/10/16 09:37:57;;;;;;;7.10;4.35;;;512.00;1971.20;;;;;;5018149;28;20507;-85
2022/10/16 09:40:41;;;;;;;8.38;3.85;;;512.10;1971.20;;;;;;5026430;28;20033;-75
2022/10/16 09:43:20;;;;;;;15.45;5.38;;;512.20;1920.00;;;;;;5044229;28;20040;-75
2022/10/16 09:45:59;;;;;;;6.25;4.32;;;512.20;1894.40;;;;;;5047854;28;20040;-75
2022/10/16 09:48:30;;;;;;;16.13;4.50;;;512.40;1920.00;;;;;;5045387;28;20099;-76
2022/10/16 09:50:58;;;;;;;10.98;5.50;;;512.70;1971.20;;;;;;5033230;28;20013;-76
2022/10/16 09:53:36;;;;;;;9.75;4.53;;;512.80;1868.80;;;;;;5044350;28;20070;-75
2022/10/16 09:56:05;;;;;;;10.43;4.18;;;512.70;1792.00;;;;;;5052610;28;20036;-76
2022/10/16 09:58:32;;;;;;;10.38;4.30;;;537.60;1817.60;;;;;;5034222;28;20029;-76
2022/10/16 10:00:59;;;;;;;11.63;4.60;;;537.60;1817.60;;;;;;5034669;28;20048;-82
2022/10/16 10:03:36;;;;;;;8.10;4.43;;;537.70;1766.40;;;;;;5026011;28;20087;-83
2022/10/16 10:06:21;;;;;;;13.73;4.88;;;537.90;1766.40;;;;;;5012465;28;20065;-79
2022/10/16 10:09:18;;;;;;;8.60;4.95;;;537.90;1715.20;;;;;;5020538;28;20049;-81
2022/10/16 10:11:53;;;;;;;10.57;4.10;;;538.20;1715.20;;;;;;4982468;28;20242;-77
2022/10/16 10:14:51;;;;;;;6.72;4.00;;;538.20;1689.60;;;;;;5017091;28;20052;-79
2022/10/16 10:17:18;;;;;;;22.52;4.93;;;538.30;1664.00;;;;;;5012413;28;20047;-74
2022/10/16 10:20:11;;;;;;;10.40;4.60;;;538.30;1664.00;;;;;;5023261;28;20079;-77
2022/10/16 10:22:45;;;;;;;6.75;4.47;;;538.50;1664.00;;;;;;5021220;28;20105;-74
2022/10/16 10:25:11;;;;;;;8.50;4.03;;;538.50;1612.80;;;;;;4995508;28;20080;-75
2022/10/16 10:28:01;;;;;;;9.85;4.50;;;563.30;1664.00;;;;;;5005617;28;20037;-77
2022/10/16 10:30:41;;;;;;;10.32;4.47;;;563.50;1664.00;;;;;;5002827;28;20038;-76
2022/10/16 10:33:24;;;;;;;12.20;4.22;;;563.50;1612.80;;;;;;4998861;28;20033;-78
2022/10/16 10:36:14;;;;;;;9.05;4.25;;;563.60;1612.80;;;;;;5007297;28;20036;-79
2022/10/16 10:38:43;;;;;;;9.70;4.43;;;563.70;1587.20;;;;;;5011009;28;20029;-79
2022/10/16 10:41:36;;;;;;;6.82;4.25;;;563.80;1587.20;;;;;;4997151;28;20022;-80
2022/10/16 10:44:15;;;;;;;10.25;4.43;;;563.80;1561.60;;;;;;5010241;28;20034;-80
2022/10/16 10:47:05;;;;;;;12.18;3.83;;;563.90;1587.20;;;;;;5025252;28;20029;-78
2022/10/16 10:49:49;;;;;;;6.68;3.80;;;564.10;1587.20;;;;;;5033763;28;20029;-82
2022/10/16 10:52:51;;;;;;;8.75;4.25;;;588.80;1561.60;;;;;;5023423;28;20037;-79
2022/10/16 10:55:26;;;;;;;7.90;4.07;;;588.80;1536.00;;;;;;5028211;28;20021;-77
2022/10/16 10:58:18;;;;;;;6.88;3.50;;;589.20;1536.00;;;;;;5033893;28;20040;-85
2022/10/16 11:01:12;;;;;;;8.63;4.70;;;589.20;1484.80;;;;;;5040923;28;20514;-78
2022/10/16 11:04:01;;;;;;;10.63;4.57;;;589.10;1484.80;;;;;;5020655;28;20560;-75
2022/10/16 11:06:50;;;;;;;8.40;4.97;;;589.10;1484.80;;;;;;5051583;28;20124;-77
2022/10/16 11:09:38;;;;;;;12.00;4.72;;;589.20;1484.80;;;;;;5022831;28;20018;-76
2022/10/16 11:12:14;;;;;;;9.30;5.75;;;589.60;1484.80;;;;;;5037886;28;20021;-82
2022/10/16 11:14:49;;;;;;;10.02;5.10;;;589.60;1484.80;;;;;;5051722;28;20028;-77
2022/10/16 11:17:40;;;;;;;8.43;4.80;;;589.50;1484.80;;;;;;5044650;28;20490;-77
2022/10/16 11:20:25;;;;;;;11.23;4.30;;;589.60;1484.80;;;;;;5047953;28;20021;-77
2022/10/16 11:23:05;;;;;;;8.47;4.03;;;589.70;1484.80;;;;;;5036050;28;20017;-76
2022/10/16 11:25:32;;;;;;;9.98;4.03;;;589.70;1459.20;;;;;;5050701;28;20338;-83
2022/10/16 11:28:10;;;;;;;11.27;4.53;;;589.50;1459.20;;;;;;5028559;28;20075;-77
2022/10/16 11:30:57;;;;;;;8.80;4.45;;;589.70;1459.20;;;;;;5054383;28;20490;-77
2022/10/16 11:33:45;;;;;;;6.90;3.90;;;589.70;1459.20;;;;;;5001531;28;20042;-84
2022/10/16 11:36:19;;;;;;;8.38;4.35;;;614.40;1459.20;;;;;;5025708;28;20043;-78
2022/10/16 11:38:57;;;;;;;9.63;4.25;;;614.50;1459.20;;;;;;5023554;28;20026;-82
2022/10/16 11:41:49;;;;;;;8.05;4.28;;;614.50;1459.20;;;;;;5025941;28;20014;-82
2022/10/16 11:44:50;;;;;;;7.85;3.35;;;614.70;1433.60;;;;;;5016635;28;20030;-81
2022/10/16 11:47:42;;;;;;;8.75;3.47;;;614.70;1433.60;;;;;;4954147;29;20505;-76
2022/10/16 11:50:29;;;;;;;12.02;4.00;;;614.90;1408.00;;;;;;4954284;29;20086;-83
2022/10/16 11:53:39;;;;;;;9.95;3.25;;;614.80;1433.60;;;;;;4924729;29;20102;-80
2022/10/16 11:56:05;;;;;;;10.27;3.92;;;614.80;1408.00;;;;;;4938837;29;20102;-77
2022/10/16 11:58:52;;;;;;;6.20;3.15;;;614.80;1408.00;;;;;;4934134;29;20032;-77
2022/10/16 12:01:45;;;;;;;6.93;3.38;;;614.90;1408.00;;;;;;4947921;29;20178;-78
2022/10/16 12:04:33;;;;;;;7.15;3.80;;;614.80;1433.60;;;;;;4945895;29;20557;-78
2022/10/16 12:07:22;;;;;;;7.63;4.82;;;614.60;1382.40;;;;;;4924412;29;20119;-78
2022/10/16 12:09:48;;;;;;;7.85;3.63;;;614.50;1408.00;;;;;;4953598;29;20033;-78
2022/10/16 12:12:28;;;;;;;8.00;4.18;;;614.50;1408.00;;;;;;4938424;29;20449;-78
2022/10/16 12:15:23;;;;;;;7.60;4.15;;;614.50;1433.60;;;;;;4954542;29;20051;-80
2022/10/16 12:17:49;;;;;;;6.25;3.78;;;614.40;1408.00;;;;;;4954716;29;20024;-78
2022/10/16 12:20:23;;;;;;;5.22;3.38;;;614.50;1408.00;;;;;;4960370;28;20054;-78
2022/10/16 12:22:58;;;;;;;7.45;4.45;;;614.50;1408.00;;;;;;5007336;28;20026;-78
2022/10/16 12:25:25;;;;;;;7.45;4.10;;;614.80;1408.00;;;;;;5002817;28;20025;-84
2022/10/16 12:27:59;;;;;;;9.55;4.35;;;614.80;1408.00;;;;;;5022026;28;20091;-78
2022/10/16 12:30:28;;;;;;;6.65;4.00;;;614.60;1408.00;;;;;;4997652;28;20033;-78
2022/10/16 12:33:20;;;;;;;7.47;4.63;;;614.50;1408.00;;;;;;5001709;28;20037;-79